Latest Coastal Weather Observations for Gold Coast Seaway

IDQ60701

Issued at 10:12 pm EST Sunday 25 June 2017 (issued every 10 minutes, with the page automatically refreshed every 10 minutes)

About coastal observations | Map of coastal stations | Coastal observations for QLD | Marine services | Other Formats
Station Details ID: 040764 Name: GOLD COAST SEAWAY Lat: -27.94 Lon: 153.43 Height: 2.98 m
Data from the previous 72 hours. | See also: Recent months at Gold Coast Seaway
Date/Time
EST
Temp
°C
Wind Pressure Rain since
9am
mm
Weather Cloud Vis
km
Sea
Height
m
Swell
Dir  Spd
kts
Gust
kts
hPa Trend Height
m
Period
s
Dir
25/10:00pm 15.8 SW 5 6 1019.8 - 0.0 - - - - - - -
25/09:30pm 16.1 SW 3 4 1019.8 - 0.0 - - - - - - -
25/09:00pm 16.2 WSW 4 6 1019.5 - 0.0 - - - - - - -
25/08:30pm 16.5 WSW 5 5 1019.4 - 0.0 - - - - - - -
25/08:00pm 16.6 WNW 5 5 1019.2 - 0.0 - - - - - - -
25/07:30pm 16.9 WNW 6 7 1019.0 - 0.0 - - - - - - -
25/07:00pm 17.4 NW 5 5 1018.8 - 0.0 - - - - - - -
25/06:30pm 18.2 NW 5 6 1018.5 - 0.0 - - - - - - -
25/06:00pm 18.7 NNW 6 7 1018.3 - 0.0 - - - - - - -
25/05:30pm 19.3 NNW 6 8 1018.0 - 0.0 - - - - - - -
25/05:00pm 19.9 NNE 11 13 1017.5 - 0.0 - - - - - - -
25/04:30pm 20.6 NNE 10 13 1017.5 - 0.0 - - - - - - -
25/04:00pm 21.3 NNE 11 13 1017.6 - 0.0 - - - - - - -
25/03:30pm 22.0 NNE 11 14 1017.4 - 0.0 - - - - - - -
25/03:00pm 21.7 NE 10 12 1017.3 - 0.0 - - - - - - -
25/02:30pm 22.2 NE 9 10 1017.3 - 0.0 - - - - - - -
25/02:00pm 22.3 NE 9 10 1017.4 - 0.0 - - - - - - -
25/01:30pm 22.1 NE 8 9 1017.5 - 0.0 - - - - - - -
25/01:00pm 22.0 NE 7 8 1017.7 - 0.0 - - - - - - -
25/12:30pm 21.9 ENE 7 8 1018.2 - 0.0 - - - - - - -
25/12:00pm 21.4 ENE 5 6 1018.5 - 0.0 - - - - - - -
25/11:30am 21.7 ESE 6 6 1019.1 - 0.0 - - - - - - -
25/11:00am 21.2 ESE 5 6 1019.5 - 0.0 - - - - - - -
25/10:30am 21.4 CALM 0 0 1019.9 - 0.0 - - - - - - -
25/10:00am 20.3 W 4 5 1020.2 - 0.0 - - - - - - -
25/09:30am 19.5 W 4 5 1020.3 - 0.0 - - - - - - -
25/09:00am 18.2 W 5 6 1020.2 - 0.0 - - - - - - -
25/08:30am 16.8 WNW 6 7 1019.9 - 0.0 - - - - - - -
25/08:00am 15.7 W 6 6 1019.5 - 0.0 - - - - - - -
25/07:30am 14.6 WSW 6 7 1019.4 - 0.0 - - - - - - -
25/07:00am 13.6 WSW 6 8 1019.1 - 0.0 - - - - - - -
25/06:30am 13.3 WSW 6 7 1018.9 - 0.0 - - - - - - -
25/06:00am 13.0 SW 6 8 1018.6 - 0.0 - - - - - - -
25/05:30am 13.0 SW 6 7 1018.5 - 0.0 - - - - - - -
25/05:00am 13.2 WSW 7 8 1018.1 - 0.0 - - - - - - -
25/04:30am 13.2 WSW 7 8 1017.9 - 0.0 - - - - - - -
25/04:00am 13.1 SW 8 9 1017.9 - 0.0 - - - - - - -
25/03:30am 13.1 SW 8 9 1018.1 - 0.0 - - - - - - -
25/03:00am 13.2 SW 7 9 1018.3 - 0.0 - - - - - - -
25/02:30am 13.5 SW 7 8 1018.3 - 0.0 - - - - - - -
25/02:00am 13.5 SW 7 8 1018.3 - 0.0 - - - - - - -
25/01:30am 13.6 SW 7 8 1018.3 - 0.0 - - - - - - -
25/01:00am 13.8 SW 7 8 1018.6 - 0.0 - - - - - - -
25/12:30am 14.0 SW 7 8 1018.7 - 0.0 - - - - - - -
25/12:00am 14.1 SW 6 8 1018.7 - 0.0 - - - - - - -
 
Date/Time
EST
Temp
°C
Wind Pressure Rain since
9am
mm
Weather Cloud Vis
km
Sea
Height
m
Swell
Dir  Spd
kts
Gust
kts
hPa Trend Height
m
Period
s
Dir
24/11:30pm 14.1 SW 7 9 1018.7 - 0.0 - - - - - - -
24/11:00pm 14.3 SW 6 8 1018.5 - 0.0 - - - - - - -
24/10:30pm 14.6 SW 6 8 1018.7 - 0.0 - - - - - - -
24/10:00pm 15.0 SW 6 7 1018.7 - 0.0 - - - - - - -
24/09:30pm 15.5 SSW 6 8 1018.6 - 0.0 - - - - - - -
24/09:00pm 15.1 SW 5 7 1018.5 - 0.0 - - - - - - -
24/08:30pm 15.4 SSW 5 7 1018.4 - 0.0 - - - - - - -
24/08:00pm 15.9 SSW 5 6 1018.3 - 0.0 - - - - - - -
24/07:30pm 17.0 S 6 7 1018.1 - 0.0 - - - - - - -
24/07:00pm 19.0 SE 11 13 1017.7 - 0.0 - - - - - - -
24/06:30pm 19.1 SE 12 16 1017.5 - 0.0 - - - - - - -
24/06:00pm 19.2 SE 14 17 1017.0 - 0.0 - - - - - - -
24/05:30pm 19.4 SE 15 17 1016.5 - 0.0 - - - - - - -
24/05:00pm 19.8 SE 15 16 1016.3 - 0.0 - - - - - - -
24/04:30pm 20.8 SE 9 10 1016.0 - 0.0 - - - - - - -
24/04:00pm 21.7 ESE 7 8 1015.7 - 0.0 - - - - - - -
24/03:30pm 22.1 ENE 6 8 1015.6 - 0.0 - - - - - - -
24/03:00pm 22.4 ENE 6 7 1015.4 - 0.0 - - - - - - -
24/02:30pm 22.6 ESE 6 7 1015.4 - 0.0 - - - - - - -
24/02:00pm 22.8 ESE 8 9 1015.3 - 0.0 - - - - - - -
24/01:30pm 23.0 E 5 6 1015.3 - 0.0 - - - - - - -
24/01:00pm 23.2 SE 5 5 1015.3 - 0.0 - - - - - - -
24/12:30pm 24.0 SE 6 7 1015.7 - 0.0 - - - - - - -
24/12:00pm 23.3 SW 1 5 1016.0 - 0.0 - - - - - - -
24/11:30am 23.2 WNW 6 8 1016.6 - 0.0 - - - - - - -
24/11:00am 22.6 WNW 9 13 1017.2 - 0.0 - - - - - - -
24/10:30am 21.7 NW 10 11 1017.6 - 0.0 - - - - - - -
24/10:00am 20.2 NW 7 9 1018.2 - 0.0 - - - - - - -
24/09:30am 18.5 WNW 7 8 1018.3 - 0.0 - - - - - - -
24/09:00am 17.1 WNW 8 8 1018.1 - 0.0 - - - - - - -
24/08:30am 15.9 NW 8 9 1017.8 - 0.0 - - - - - - -
24/08:00am 15.1 NW 8 9 1017.5 - 0.0 - - - - - - -
24/07:30am 14.3 WNW 7 8 1017.3 - 0.0 - - - - - - -
24/07:00am 13.5 NW 6 7 1017.2 - 0.0 - - - - - - -
24/06:30am 12.2 W 6 8 1016.9 - 0.0 - - - - - - -
24/06:00am 12.8 WNW 5 6 1016.5 - 0.0 - - - - - - -
24/05:30am 13.0 WNW 7 8 1016.2 - 0.0 - - - - - - -
24/05:00am 13.5 NW 8 9 1015.8 - 0.0 - - - - - - -
24/04:30am 13.1 WNW 7 8 1015.8 - 0.0 - - - - - - -
24/04:00am 13.0 WNW 8 8 1016.0 - 0.0 - - - - - - -
24/03:30am 13.5 NW 8 10 1016.2 - 0.0 - - - - - - -
24/03:00am 14.1 NW 8 9 1016.3 - 0.0 - - - - - - -
24/02:30am 14.8 NW 8 9 1016.5 - 0.0 - - - - - - -
24/02:00am 14.6 NW 8 9 1016.7 - 0.0 - - - - - - -
24/01:30am 13.4 WNW 6 7 1017.3 - 0.0 - - - - - - -
24/01:00am 13.3 WNW 5 6 1017.5 - 0.0 - - - - - - -
24/12:30am 15.1 WNW 7 7 1017.3 - 0.0 - - - - - - -
24/12:00am 15.3 NW 6 7 1017.6 - 0.0 - - - - - - -
 
Date/Time
EST
Temp
°C
Wind Pressure Rain since
9am
mm
Weather Cloud Vis
km
Sea
Height
m
Swell
Dir  Spd
kts
Gust
kts
hPa Trend Height
m
Period
s
Dir
23/11:30pm 14.9 WNW 6 8 1018.2 - 0.0 - - - - - - -
23/11:00pm 16.1 WNW 9 9 1018.5 - 0.0 - - - - - - -
23/10:30pm 14.8 W 5 6 1018.5 - 0.0 - - - - - - -
23/10:00pm 15.6 NW 7 8 1018.6 - 0.0 - - - - - - -
23/09:30pm 14.7 WNW 5 6 1018.9 - 0.0 - - - - - - -
23/09:00pm 15.3 WNW 6 8 1019.0 - 0.0 - - - - - - -
23/08:30pm 16.5 WNW 8 9 1018.8 - 0.0 - - - - - - -
23/08:00pm 16.9 NW 9 10 1018.9 - 0.0 - - - - - - -
23/07:30pm 17.0 NW 7 9 1018.6 - 0.0 - - - - - - -
23/07:00pm 17.4 NNW 7 9 1018.6 - 0.0 - - - - - - -
23/06:30pm 17.6 N 6 8 1018.3 - 0.0 - - - - - - -
23/06:00pm 17.3 N 6 7 1018.1 - 0.0 - - - - - - -
23/05:30pm 16.9 N 5 6 1018.0 - 0.0 - - - - - - -
23/05:00pm 18.9 NW 4 5 1018.2 - 0.0 - - - - - - -
23/04:30pm 21.3 NW 7 9 1018.0 - 0.0 - - - - - - -
23/04:00pm 22.0 NW 7 9 1017.8 - 0.0 - - - - - - -
23/03:30pm 22.1 NW 9 12 1018.0 - 0.0 - - - - - - -
23/03:00pm 22.3 NNW 7 11 1018.1 - 0.0 - - - - - - -
23/02:30pm 22.1 NNE 11 13 1018.2 - 0.0 - - - - - - -
23/02:00pm 22.5 NNE 9 10 1018.6 - 0.0 - - - - - - -
23/01:30pm 22.1 NNE 8 9 1019.0 - 0.0 - - - - - - -
23/01:00pm 21.6 NE 7 8 1019.4 - 0.0 - - - - - - -
23/12:30pm 21.3 NE 6 7 1019.9 - 0.0 - - - - - - -
23/12:00pm 20.9 ENE 6 7 1020.5 - 0.0 - - - - - - -
23/11:30am 21.1 NE 6 7 1021.2 - 0.0 - - - - - - -
23/11:00am 21.1 E 6 7 1021.8 - 0.0 - - - - - - -
23/10:30am 21.0 N 3 5 1022.3 - 0.0 - - - - - - -
23/10:00am 20.2 SW 5 6 1022.7 - 0.0 - - - - - - -
23/09:30am 19.2 SW 5 7 1022.8 - 0.0 - - - - - - -
23/09:00am 18.2 SW 5 7 1022.7 - 0.0 - - - - - - -
23/08:30am 16.7 WSW 6 7 1022.2 - 0.0 - - - - - - -
23/08:00am 15.3 WSW 6 7 1022.3 - 0.0 - - - - - - -
23/07:30am 14.1 WSW 6 8 1022.3 - 0.0 - - - - - - -
23/07:00am 13.5 WSW 5 7 1022.1 - 0.0 - - - - - - -
23/06:30am 13.2 WSW 6 7 1021.7 - 0.0 - - - - - - -
23/06:00am 13.2 WSW 7 7 1021.4 - 0.0 - - - - - - -
23/05:30am 13.6 WSW 7 8 1021.4 - 0.0 - - - - - - -
23/05:00am 13.5 WSW 6 7 1021.1 - 0.0 - - - - - - -
23/04:30am 13.5 WSW 6 7 1021.1 - 0.0 - - - - - - -
23/04:00am 13.6 SW 7 8 1021.3 - 0.0 - - - - - - -
23/03:30am 13.5 SW 6 7 1021.6 - 0.0 - - - - - - -
23/03:00am 13.7 WSW 6 7 1021.8 - 0.0 - - - - - - -
23/02:30am 13.9 WSW 6 8 1021.9 - 0.0 - - - - - - -
23/02:00am 14.0 WSW 7 8 1022.0 - 0.0 - - - - - - -
23/01:30am 13.9 WSW 6 8 1022.4 - 0.0 - - - - - - -
23/01:00am 14.1 WSW 7 8 1022.6 - 0.0 - - - - - - -
23/12:30am 14.0 WSW 6 8 1022.8 - 0.0 - - - - - - -
23/12:00am 14.1 WSW 7 8 1023.0 - 0.0 - - - - - - -
 
Date/Time
EST
Temp
°C
Wind Pressure Rain since
9am
mm
Weather Cloud Vis
km
Sea
Height
m
Swell
Dir  Spd
kts
Gust
kts
hPa Trend Height
m
Period
s
Dir
22/11:30pm 13.9 SW 7 8 1023.4 - 0.0 - - - - - - -
22/11:00pm 14.1 WSW 8 8 1023.5 - 0.0 - - - - - - -
22/10:30pm 14.1 WSW 6 7 1023.7 - 0.0 - - - - - - -

Other Formats:

Comma delimited format used in spreadsheet applications
http://www.bom.gov.au/fwo/IDQ60701/IDQ60701.94580.axf

JavaScript Object Notation format (JSON) in row-major order
http://www.bom.gov.au/fwo/IDQ60701/IDQ60701.94580.json